createdAt,value
2022-09-14T00:01:27.721Z,11.70
2022-09-14T00:03:57.053Z,10.35
2022-09-14T00:06:24.659Z,10.60
2022-09-14T00:08:53.100Z,6.97
2022-09-14T00:11:22.664Z,8.95
2022-09-14T00:13:50.546Z,11.80
2022-09-14T00:16:21.107Z,9.60
2022-09-14T00:18:59.175Z,6.35
2022-09-14T00:21:27.409Z,9.05
2022-09-14T00:23:54.570Z,11.52
2022-09-14T00:26:22.790Z,8.02
2022-09-14T00:28:55.350Z,9.20
2022-09-14T00:31:23.940Z,9.73
2022-09-14T00:33:52.004Z,12.98
2022-09-14T00:36:27.622Z,7.13
2022-09-14T00:38:56.778Z,9.07
2022-09-14T00:41:27.223Z,8.30
2022-09-14T00:44:06.162Z,8.35
2022-09-14T00:46:46.352Z,10.32
2022-09-14T00:49:34.571Z,11.15
2022-09-14T00:52:23.074Z,13.25
2022-09-14T00:54:58.540Z,8.18
2022-09-14T00:57:27.963Z,7.70
2022-09-14T00:59:55.731Z,8.30
2022-09-14T01:02:24.315Z,7.38
2022-09-14T01:04:51.996Z,11.27
2022-09-14T01:07:22.280Z,10.20
2022-09-14T01:09:55.588Z,12.68
2022-09-14T01:12:46.623Z,10.30
2022-09-14T01:15:32.388Z,8.23
2022-09-14T01:18:15.528Z,12.80
2022-09-14T01:20:54.602Z,11.60
2022-09-14T01:23:43.570Z,9.00
2022-09-14T01:26:32.433Z,7.93
2022-09-14T01:29:42.024Z,6.85
2022-09-14T01:32:20.383Z,6.55
2022-09-14T01:35:15.771Z,7.40
2022-09-14T01:37:50.916Z,9.50
2022-09-14T01:40:37.511Z,9.07
2022-09-14T01:43:10.859Z,9.90
2022-09-14T01:45:50.425Z,9.85
2022-09-14T01:48:22.745Z,7.72
2022-09-14T01:50:56.974Z,9.45
2022-09-14T01:53:37.670Z,8.60
2022-09-14T01:56:15.823Z,8.82
2022-09-14T01:58:57.218Z,8.18
2022-09-14T02:01:37.856Z,15.27
2022-09-14T02:04:08.658Z,9.32
2022-09-14T02:06:39.890Z,9.77
2022-09-14T02:09:10.237Z,9.18
2022-09-14T02:11:38.543Z,8.75
2022-09-14T02:14:06.154Z,8.63
2022-09-14T02:16:34.831Z,6.25
2022-09-14T02:19:02.483Z,7.85
2022-09-14T02:21:31.861Z,8.88
2022-09-14T02:24:00.165Z,11.52
2022-09-14T02:26:28.275Z,7.55
2022-09-14T02:28:56.254Z,6.80
2022-09-14T02:31:48.591Z,7.55
2022-09-14T02:34:48.313Z,5.93
2022-09-14T02:37:21.938Z,9.30
2022-09-14T02:40:07.965Z,7.05
2022-09-14T02:42:53.731Z,10.82
2022-09-14T02:45:33.197Z,9.95
2022-09-14T02:48:06.425Z,9.27
2022-09-14T02:50:33.560Z,8.10
2022-09-14T02:53:12.928Z,8.27
2022-09-14T02:55:46.989Z,7.55
2022-09-14T02:58:15.122Z,6.50
2022-09-14T03:00:45.687Z,8.35
2022-09-14T03:03:15.629Z,6.50
2022-09-14T03:05:42.976Z,7.18
2022-09-14T03:08:10.962Z,8.77
2022-09-14T03:10:38.720Z,9.32
2022-09-14T03:13:05.943Z,7.75
2022-09-14T03:15:33.181Z,7.47
2022-09-14T03:18:00.539Z,11.75
2022-09-14T03:20:29.395Z,6.43
2022-09-14T03:22:58.524Z,8.80
2022-09-14T03:25:26.040Z,9.13
2022-09-14T03:27:58.808Z,6.38
2022-09-14T03:30:26.485Z,6.90
2022-09-14T03:32:53.722Z,7.25
2022-09-14T03:35:20.997Z,11.60
2022-09-14T03:37:48.375Z,10.55
2022-09-14T03:40:21.423Z,6.05
2022-09-14T03:42:50.712Z,9.40
2022-09-14T03:45:19.030Z,8.50
2022-09-14T03:47:49.153Z,8.52
2022-09-14T03:50:17.780Z,9.85
2022-09-14T03:52:45.130Z,11.55
2022-09-14T03:55:12.421Z,7.47
2022-09-14T03:57:41.737Z,9.98
2022-09-14T04:00:10.293Z,7.22
2022-09-14T04:02:41.218Z,10.23
2022-09-14T04:05:08.622Z,9.80
2022-09-14T04:07:36.361Z,7.65
2022-09-14T04:10:05.564Z,9.40
2022-09-14T04:12:36.956Z,11.75
2022-09-14T04:15:06.018Z,6.90
2022-09-14T04:17:33.506Z,8.80
2022-09-14T04:20:00.766Z,8.32
2022-09-14T04:22:28.046Z,9.65
2022-09-14T04:24:55.334Z,10.82
2022-09-14T04:27:23.285Z,8.52
2022-09-14T04:29:50.645Z,10.27
2022-09-14T04:32:17.897Z,7.72
2022-09-14T04:34:45.174Z,11.27
2022-09-14T04:37:12.364Z,10.52
2022-09-14T04:39:39.677Z,11.02
2022-09-14T04:42:07.430Z,9.18
2022-09-14T04:44:34.605Z,7.88
2022-09-14T04:47:01.926Z,8.27
2022-09-14T04:49:29.284Z,9.73
2022-09-14T04:51:56.519Z,8.82
2022-09-14T04:54:23.712Z,9.80
2022-09-14T04:56:50.909Z,6.88
2022-09-14T04:59:18.273Z,9.63
2022-09-14T05:01:47.725Z,10.60
2022-09-14T05:04:15.483Z,12.02
2022-09-14T05:06:44.236Z,7.47
2022-09-14T05:09:16.597Z,7.40
2022-09-14T05:11:44.553Z,13.57
2022-09-14T05:14:13.303Z,9.18
2022-09-14T05:16:41.510Z,10.43
2022-09-14T05:19:12.291Z,11.57
2022-09-14T05:21:39.664Z,6.85
2022-09-14T05:24:15.142Z,7.05
2022-09-14T05:26:43.593Z,9.18
2022-09-14T05:29:16.906Z,7.90
2022-09-14T05:31:45.995Z,8.68
2022-09-14T05:34:13.409Z,9.68
2022-09-14T05:36:41.098Z,8.02
2022-09-14T05:39:08.762Z,10.10
2022-09-14T05:41:36.278Z,8.60
2022-09-14T05:44:04.171Z,7.15
2022-09-14T05:46:31.605Z,9.65
2022-09-14T05:48:59.033Z,14.98
2022-09-14T05:51:27.645Z,12.55
2022-09-14T05:53:56.937Z,8.40
2022-09-14T05:56:26.679Z,11.13
2022-09-14T05:58:54.286Z,9.95
2022-09-14T06:01:27.270Z,14.40
2022-09-14T06:03:56.310Z,15.82
2022-09-14T06:06:24.109Z,10.70
2022-09-14T06:08:55.049Z,12.88
2022-09-14T06:11:28.535Z,13.75
2022-09-14T06:13:56.648Z,10.13
2022-09-14T06:16:25.195Z,9.73
2022-09-14T06:18:54.212Z,11.90
2022-09-14T06:21:23.826Z,14.27
2022-09-14T06:23:51.985Z,10.95
2022-09-14T06:26:20.727Z,11.45
2022-09-14T06:28:48.095Z,18.38
2022-09-14T06:31:17.901Z,31.13
2022-09-14T06:33:46.548Z,15.80
2022-09-14T06:36:21.774Z,13.07
2022-09-14T06:38:49.997Z,13.32
2022-09-14T06:41:20.479Z,10.63
2022-09-14T06:43:48.819Z,14.90
2022-09-14T06:46:21.799Z,11.98
2022-09-14T06:48:55.611Z,12.00
2022-09-14T06:51:37.164Z,12.00
2022-09-14T06:54:05.171Z,11.82
2022-09-14T06:56:35.041Z,12.70
2022-09-14T06:59:02.591Z,12.82
2022-09-14T07:01:30.101Z,10.95
2022-09-14T07:03:58.586Z,14.35
2022-09-14T07:06:33.881Z,21.10
2022-09-14T07:09:03.980Z,13.75
2022-09-14T07:11:31.994Z,12.63
2022-09-14T07:13:59.913Z,12.60
2022-09-14T07:16:28.766Z,9.40
2022-09-14T07:18:57.778Z,11.63
2022-09-14T07:21:26.173Z,17.83
2022-09-14T07:23:53.973Z,12.82
2022-09-14T07:26:26.928Z,19.27
2022-09-14T07:28:59.937Z,17.10
2022-09-14T07:31:30.459Z,15.20
2022-09-14T07:34:00.139Z,14.85
2022-09-14T07:36:30.475Z,19.58
2022-09-14T07:39:01.781Z,12.48
2022-09-14T07:41:30.368Z,13.63
2022-09-14T07:44:00.516Z,15.90
2022-09-14T07:46:29.699Z,15.00
2022-09-14T07:48:58.783Z,14.00
2022-09-14T07:51:26.682Z,15.68
2022-09-14T07:53:54.240Z,10.65
2022-09-14T07:56:21.936Z,15.10
2022-09-14T07:58:53.996Z,11.05
2022-09-14T08:01:23.319Z,8.68
2022-09-14T08:03:51.035Z,21.38
2022-09-14T08:06:21.567Z,26.00
2022-09-14T08:08:55.479Z,38.95
2022-09-14T08:11:30.805Z,23.67
2022-09-14T08:14:16.128Z,26.30
2022-09-14T08:16:46.308Z,20.45
2022-09-14T08:19:17.894Z,14.75
2022-09-14T08:21:47.086Z,14.43
2022-09-14T08:24:17.590Z,18.35
2022-09-14T08:26:45.079Z,10.07
2022-09-14T08:29:16.489Z,20.35
2022-09-14T08:31:47.367Z,21.25
2022-09-14T08:34:15.956Z,45.42
2022-09-14T08:36:43.871Z,16.58
2022-09-14T08:39:12.381Z,16.00
2022-09-14T08:41:45.812Z,15.38
2022-09-14T08:44:34.117Z,18.10
2022-09-14T08:47:04.238Z,12.77
2022-09-14T08:52:05.201Z,11.65
2022-09-14T08:54:37.140Z,15.63
2022-09-14T08:57:16.544Z,22.92
2022-09-14T08:59:52.870Z,26.48
2022-09-14T09:02:44.609Z,20.83
2022-09-14T09:05:20.916Z,16.40
2022-09-14T09:07:54.282Z,22.27
2022-09-14T09:10:21.891Z,17.55
2022-09-14T09:12:53.668Z,34.15
2022-09-14T09:15:24.303Z,20.48
2022-09-14T09:18:09.657Z,14.45
2022-09-14T09:20:44.330Z,20.88
2022-09-14T09:23:16.306Z,11.57
2022-09-14T09:26:07.024Z,30.52
2022-09-14T09:28:34.581Z,24.75
2022-09-14T09:31:05.593Z,10.95
2022-09-14T09:33:52.993Z,18.88
2022-09-14T09:36:23.316Z,15.25
2022-09-14T09:38:50.880Z,15.25
2022-09-14T09:41:27.123Z,14.40
2022-09-14T09:44:01.863Z,13.35
2022-09-14T09:46:34.244Z,11.10
2022-09-14T09:49:22.953Z,14.63
2022-09-14T09:51:50.684Z,11.00
2022-09-14T09:54:29.709Z,13.13
2022-09-14T09:57:05.579Z,9.52
2022-09-14T09:59:35.394Z,50.05
2022-09-14T10:02:24.282Z,27.77
2022-09-14T10:05:22.663Z,59.25
2022-09-14T10:07:52.232Z,41.65
2022-09-14T10:10:22.333Z,33.83
2022-09-14T10:15:31.874Z,16.98
2022-09-14T10:18:11.427Z,22.45
2022-09-14T10:20:42.212Z,10.25
2022-09-14T10:23:18.614Z,16.25
2022-09-14T10:25:47.311Z,14.30
2022-09-14T10:28:28.782Z,13.80
2022-09-14T10:31:08.640Z,6.35
2022-09-14T10:33:35.979Z,7.50
2022-09-14T10:36:16.148Z,7.10
2022-09-14T10:38:52.818Z,16.33
2022-09-14T10:41:30.993Z,19.20
2022-09-14T10:44:22.815Z,13.07
2022-09-14T10:47:07.548Z,8.93
2022-09-14T10:49:53.349Z,12.85
2022-09-14T10:52:24.654Z,14.30
2022-09-14T10:55:07.921Z,9.40
2022-09-14T10:57:35.177Z,19.15
2022-09-14T11:00:14.964Z,47.17
2022-09-14T11:02:45.240Z,27.02
2022-09-14T11:05:22.496Z,20.02
2022-09-14T11:08:14.180Z,14.18
2022-09-14T11:10:52.116Z,18.33
2022-09-14T11:13:44.517Z,17.00
2022-09-14T11:16:41.200Z,27.88
2022-09-14T11:19:37.039Z,19.08
2022-09-14T11:22:46.674Z,15.50
2022-09-14T11:25:25.368Z,14.40
2022-09-14T11:27:57.659Z,7.40
2022-09-14T11:30:33.196Z,9.57
2022-09-14T11:33:09.128Z,8.27
2022-09-14T11:35:53.202Z,6.43
2022-09-14T11:38:22.326Z,8.77
2022-09-14T11:40:54.439Z,10.45
2022-09-14T11:43:36.520Z,13.63
2022-09-14T11:46:06.676Z,10.48
2022-09-14T11:48:42.754Z,13.48
2022-09-14T11:51:33.681Z,11.30
2022-09-14T11:54:00.960Z,11.32
2022-09-14T11:56:31.267Z,12.02
2022-09-14T11:59:00.772Z,9.20
2022-09-14T12:01:37.302Z,8.57
2022-09-14T12:04:13.438Z,16.33
2022-09-14T12:06:40.741Z,13.48
2022-09-14T12:09:14.343Z,7.53
2022-09-14T12:11:43.234Z,5.60
2022-09-14T12:14:15.702Z,7.68
2022-09-14T12:17:38.447Z,8.20
2022-09-14T12:20:27.182Z,14.50
2022-09-14T12:23:13.641Z,12.68
2022-09-14T12:25:53.628Z,6.03
2022-09-14T12:31:10.346Z,8.98
2022-09-14T12:33:37.544Z,7.18
2022-09-14T12:36:05.582Z,7.05
2022-09-14T12:38:51.018Z,8.52
2022-09-14T12:41:18.261Z,6.63
2022-09-14T12:43:46.189Z,6.78
2022-09-14T12:46:22.637Z,9.75
2022-09-14T12:48:54.273Z,18.70
2022-09-14T12:51:34.053Z,13.05
2022-09-14T12:54:26.157Z,10.10
2022-09-14T12:57:15.428Z,10.23
2022-09-14T12:59:54.117Z,37.67
2022-09-14T13:03:10.200Z,25.95
2022-09-14T13:05:37.506Z,10.13
2022-09-14T13:08:10.205Z,10.98
2022-09-14T13:10:40.671Z,10.95
2022-09-14T13:13:30.794Z,7.68
2022-09-14T13:18:35.081Z,4.75
2022-09-14T13:21:20.445Z,4.70
2022-09-14T13:23:48.267Z,6.72
2022-09-14T13:26:21.429Z,6.00
2022-09-14T13:28:51.215Z,6.45
2022-09-14T13:31:32.389Z,6.85
2022-09-14T13:33:59.904Z,4.07
2022-09-14T13:36:30.525Z,4.55
2022-09-14T13:39:01.631Z,6.85
2022-09-14T13:41:30.148Z,7.75
2022-09-14T13:43:58.321Z,3.63
2022-09-14T13:46:27.033Z,3.78
2022-09-14T13:48:54.765Z,4.78
2022-09-14T13:51:24.877Z,6.45
2022-09-14T13:53:55.006Z,4.20
2022-09-14T13:56:33.964Z,5.32
2022-09-14T13:59:07.161Z,7.50
2022-09-14T14:01:40.545Z,8.43
2022-09-14T14:04:25.986Z,9.90
2022-09-14T14:07:23.339Z,8.02
2022-09-14T14:09:53.700Z,5.15
2022-09-14T14:12:24.371Z,4.70
2022-09-14T14:15:14.810Z,4.00
2022-09-14T14:17:42.259Z,5.70
2022-09-14T14:20:27.947Z,4.88
2022-09-14T14:23:10.641Z,4.90
2022-09-14T14:25:46.026Z,2.47
2022-09-14T14:28:20.115Z,4.72
2022-09-14T14:30:47.383Z,6.72
2022-09-14T14:33:19.705Z,3.97
2022-09-14T14:35:48.676Z,4.57
2022-09-14T14:38:16.254Z,9.38
2022-09-14T14:40:44.371Z,5.18
2022-09-14T14:43:18.794Z,9.73
2022-09-14T14:45:46.156Z,9.48
2022-09-14T14:48:13.499Z,3.72
2022-09-14T14:50:40.726Z,2.63
2022-09-14T14:53:07.940Z,7.30
2022-09-14T14:55:37.464Z,5.00
2022-09-14T14:58:09.909Z,5.05
2022-09-14T15:00:38.639Z,7.35
2022-09-14T15:03:05.910Z,5.97
2022-09-14T15:05:33.639Z,4.55
2022-09-14T15:08:01.024Z,9.82
2022-09-14T15:10:29.332Z,3.47
2022-09-14T15:12:56.770Z,5.38
2022-09-14T15:15:26.325Z,2.53
2022-09-14T15:17:54.149Z,8.80
2022-09-14T15:20:22.073Z,5.85
2022-09-14T15:22:49.356Z,4.32
2022-09-14T15:25:18.058Z,6.88
2022-09-14T15:27:45.572Z,6.50
2022-09-14T15:30:13.728Z,7.47
2022-09-14T15:32:41.372Z,5.95
2022-09-14T15:35:12.538Z,3.20
2022-09-14T15:37:40.095Z,5.25
2022-09-14T15:40:07.934Z,5.82
2022-09-14T15:42:35.209Z,2.60
2022-09-14T15:45:02.701Z,3.55
2022-09-14T15:47:32.890Z,3.70
2022-09-14T15:50:04.009Z,2.17
2022-09-14T15:52:31.344Z,3.50
2022-09-14T15:54:58.704Z,2.63
2022-09-14T15:57:26.031Z,4.35
2022-09-14T15:59:54.204Z,3.22
2022-09-14T16:02:22.250Z,3.03
2022-09-14T16:04:49.644Z,3.05
2022-09-14T16:07:16.876Z,2.75
2022-09-14T16:09:44.179Z,3.92
2022-09-14T16:12:12.537Z,3.03
2022-09-14T16:14:40.101Z,3.55
2022-09-14T16:17:09.157Z,4.43
2022-09-14T16:19:36.423Z,3.97
2022-09-14T16:22:04.262Z,1.73
2022-09-14T16:24:31.812Z,3.80
2022-09-14T16:26:59.700Z,3.78
2022-09-14T16:29:27.416Z,4.53
2022-09-14T16:31:54.858Z,3.92
2022-09-14T16:34:27.340Z,5.63
2022-09-14T16:36:55.372Z,2.95
2022-09-14T16:39:25.489Z,2.40
2022-09-14T16:44:24.670Z,4.72
2022-09-14T16:46:53.191Z,3.27
2022-09-14T16:49:25.041Z,2.30
2022-09-14T16:51:55.372Z,2.17
2022-09-14T16:54:24.391Z,2.35
2022-09-14T16:56:52.104Z,3.28
2022-09-14T16:59:20.577Z,3.22
2022-09-14T17:01:53.440Z,3.65
2022-09-14T17:04:22.351Z,3.90
2022-09-14T17:06:50.569Z,3.83
2022-09-14T17:09:23.784Z,6.38
2022-09-14T17:11:51.513Z,4.00
2022-09-14T17:14:21.740Z,5.38
2022-09-14T17:16:49.346Z,5.85
2022-09-14T17:19:17.296Z,4.82
2022-09-14T17:21:46.088Z,12.75
2022-09-14T17:24:14.431Z,6.10
2022-09-14T17:26:42.300Z,3.72
2022-09-14T17:29:09.994Z,8.32
2022-09-14T17:31:40.586Z,8.07
2022-09-14T17:34:09.990Z,9.13
2022-09-14T17:36:38.177Z,6.68
2022-09-14T17:39:11.412Z,4.40
2022-09-14T17:41:40.618Z,9.88
2022-09-14T17:44:10.594Z,5.40
2022-09-14T17:49:18.292Z,9.52
2022-09-14T17:51:45.514Z,6.38
2022-09-14T17:54:13.209Z,6.35
2022-09-14T17:56:40.470Z,5.18
2022-09-14T17:59:11.655Z,3.35
2022-09-14T18:01:39.295Z,7.07
2022-09-14T18:04:11.029Z,4.88
2022-09-14T18:06:40.623Z,5.07
2022-09-14T18:09:11.589Z,4.45
2022-09-14T18:11:39.105Z,7.93
2022-09-14T18:14:06.456Z,11.18
2022-09-14T18:16:34.004Z,8.43
2022-09-14T18:19:01.628Z,7.45
2022-09-14T18:21:28.789Z,7.25
2022-09-14T18:23:56.344Z,5.53
2022-09-14T18:26:24.844Z,6.43
2022-09-14T18:28:55.868Z,7.57
2022-09-14T18:31:23.387Z,5.13
2022-09-14T18:33:53.946Z,9.43
2022-09-14T18:36:22.392Z,17.42
2022-09-14T18:38:52.992Z,13.45
2022-09-14T18:41:20.752Z,9.32
2022-09-14T18:43:50.872Z,8.02
2022-09-14T18:46:18.589Z,3.97
2022-09-14T18:48:46.744Z,5.00
2022-09-14T18:51:14.526Z,2.83
2022-09-14T18:53:42.391Z,8.98
2022-09-14T18:56:14.660Z,10.48
2022-09-14T18:58:44.279Z,5.90
2022-09-14T19:01:12.359Z,3.15
2022-09-14T19:03:41.641Z,4.90
2022-09-14T19:06:11.536Z,3.77
2022-09-14T19:08:38.993Z,6.30
2022-09-14T19:11:11.225Z,5.47
2022-09-14T19:13:38.793Z,3.58
2022-09-14T19:16:08.214Z,4.28
2022-09-14T19:18:35.817Z,7.25
2022-09-14T19:21:14.317Z,5.03
2022-09-14T19:23:42.962Z,8.07
2022-09-14T19:26:14.674Z,9.45
2022-09-14T19:28:42.322Z,7.68
2022-09-14T19:31:12.238Z,7.25
2022-09-14T19:36:15.619Z,5.80
2022-09-14T19:38:43.457Z,7.90
2022-09-14T19:41:10.869Z,5.78
2022-09-14T19:43:38.509Z,6.70
2022-09-14T19:46:10.763Z,9.43
2022-09-14T19:48:38.486Z,7.20
2022-09-14T19:51:12.492Z,8.52
2022-09-14T19:53:39.726Z,11.75
2022-09-14T19:56:10.806Z,10.68
2022-09-14T19:58:39.874Z,14.73
2022-09-14T20:01:07.601Z,14.73
2022-09-14T20:03:36.979Z,16.00
2022-09-14T20:06:10.194Z,11.93
2022-09-14T20:08:37.923Z,14.18
2022-09-14T20:11:09.811Z,13.13
2022-09-14T20:13:38.026Z,19.58
2022-09-14T20:16:29.016Z,16.50
2022-09-14T20:18:58.253Z,18.25
2022-09-14T20:21:26.601Z,20.02
2022-09-14T20:24:14.480Z,19.40
2022-09-14T20:26:42.245Z,25.50
2022-09-14T20:29:09.506Z,26.30
2022-09-14T20:31:37.019Z,31.35
2022-09-14T20:34:04.520Z,26.17
2022-09-14T20:36:32.418Z,22.83
2022-09-14T20:39:00.029Z,21.85
2022-09-14T20:41:34.214Z,23.85
2022-09-14T20:44:01.914Z,21.52
2022-09-14T20:46:35.241Z,20.73
2022-09-14T20:49:04.570Z,19.88
2022-09-14T20:51:32.192Z,24.10
2022-09-14T20:53:59.539Z,20.13
2022-09-14T20:56:28.817Z,23.40
2022-09-14T20:58:58.078Z,20.07
2022-09-14T21:01:28.253Z,25.67
2022-09-14T21:03:56.035Z,22.95
2022-09-14T21:06:24.678Z,17.77
2022-09-14T21:08:52.051Z,24.58
2022-09-14T21:11:28.673Z,23.92
2022-09-14T21:13:57.671Z,19.55
2022-09-14T21:16:28.140Z,21.63
2022-09-14T21:19:06.593Z,19.75
2022-09-14T21:21:34.211Z,21.60
2022-09-14T21:24:03.125Z,21.88
2022-09-14T21:26:34.068Z,18.90
2022-09-14T21:29:04.829Z,23.38
2022-09-14T21:31:36.418Z,17.98
2022-09-14T21:34:05.701Z,17.30
2022-09-14T21:36:36.355Z,19.85
2022-09-14T21:39:25.605Z,18.38
2022-09-14T21:41:58.415Z,17.97
2022-09-14T21:44:31.318Z,20.52
2022-09-14T21:46:59.401Z,16.42
2022-09-14T21:49:26.707Z,12.98
2022-09-14T21:51:53.909Z,15.90
2022-09-14T21:54:21.446Z,19.52
2022-09-14T21:56:48.737Z,16.50
2022-09-14T21:59:18.470Z,14.40
2022-09-14T22:01:46.085Z,16.65
2022-09-14T22:04:22.686Z,13.80
2022-09-14T22:06:51.499Z,15.93
2022-09-14T22:09:21.778Z,16.00
2022-09-14T22:14:19.159Z,14.82
2022-09-14T22:19:24.092Z,14.88
2022-09-14T22:21:51.914Z,16.17
2022-09-14T22:24:21.973Z,10.30
2022-09-14T22:26:52.866Z,11.13
2022-09-14T22:29:21.181Z,13.70
2022-09-14T22:31:48.549Z,9.13
2022-09-14T22:34:16.767Z,9.13
2022-09-14T22:36:44.001Z,10.38
2022-09-14T22:39:11.642Z,8.18
2022-09-14T22:41:39.885Z,9.15
2022-09-14T22:44:07.630Z,8.68
2022-09-14T22:46:35.748Z,7.50
2022-09-14T22:49:03.504Z,9.30
2022-09-14T22:51:33.110Z,7.28
2022-09-14T22:54:00.904Z,8.40
2022-09-14T22:56:35.274Z,7.60
2022-09-14T22:59:05.552Z,6.60
2022-09-14T23:01:35.315Z,6.82
2022-09-14T23:04:11.190Z,6.65
2022-09-14T23:06:41.489Z,6.70
2022-09-14T23:11:37.730Z,7.57
2022-09-14T23:14:05.121Z,6.20
2022-09-14T23:16:32.468Z,6.38
2022-09-14T23:19:01.553Z,5.80
2022-09-14T23:21:29.893Z,7.13
2022-09-14T23:23:59.476Z,5.68
2022-09-14T23:26:27.343Z,6.22
2022-09-14T23:28:57.069Z,7.35
2022-09-14T23:31:24.720Z,6.90
2022-09-14T23:33:53.541Z,6.18
2022-09-14T23:36:22.208Z,6.65
2022-09-14T23:38:50.050Z,5.95
2022-09-14T23:41:19.136Z,7.35
2022-09-14T23:43:46.584Z,7.88
2022-09-14T23:46:14.251Z,6.07
2022-09-14T23:48:41.629Z,4.93
2022-09-14T23:51:09.789Z,9.15
2022-09-14T23:53:37.443Z,5.88
2022-09-14T23:56:05.449Z,6.43
2022-09-14T23:58:32.621Z,6.82
